createdAt,value
2019-06-13T00:00:13.785Z,11.86
2019-06-13T00:01:10.507Z,11.84
2019-06-13T00:02:09.824Z,11.83
2019-06-13T00:03:09.296Z,11.82
2019-06-13T00:04:09.149Z,11.80
2019-06-13T00:05:09.490Z,11.78
2019-06-13T00:06:09.075Z,11.76
2019-06-13T00:07:09.534Z,11.75
2019-06-13T00:08:09.124Z,11.73
2019-06-13T00:09:10.022Z,11.78
2019-06-13T00:10:09.442Z,11.78
2019-06-13T00:11:09.566Z,11.76
2019-06-13T00:12:08.985Z,11.76
2019-06-13T00:13:09.821Z,11.72
2019-06-13T00:14:09.313Z,11.71
2019-06-13T00:15:08.912Z,11.68
2019-06-13T00:16:09.884Z,11.67
2019-06-13T00:17:09.246Z,11.65
2019-06-13T00:18:09.069Z,11.62
2019-06-13T00:19:10.067Z,11.60
2019-06-13T00:20:09.859Z,11.57
2019-06-13T00:21:09.081Z,11.54
2019-06-13T00:22:09.671Z,11.53
2019-06-13T00:23:09.421Z,11.53
2019-06-13T00:24:09.183Z,11.50
2019-06-13T00:25:09.889Z,11.49
2019-06-13T00:26:09.139Z,11.47
2019-06-13T00:27:09.779Z,11.45
2019-06-13T00:28:09.084Z,11.43
2019-06-13T00:29:08.817Z,11.40
2019-06-13T00:30:08.879Z,11.36
2019-06-13T00:31:09.617Z,11.33
2019-06-13T00:32:09.405Z,11.29
2019-06-13T00:33:09.045Z,11.27
2019-06-13T00:34:09.627Z,11.25
2019-06-13T00:35:09.220Z,11.25
2019-06-13T00:36:10.982Z,11.21
2019-06-13T00:37:09.605Z,11.17
2019-06-13T00:38:09.570Z,11.17
2019-06-13T00:39:09.228Z,11.17
2019-06-13T00:40:08.899Z,11.20
2019-06-13T00:41:09.797Z,11.20
2019-06-13T00:42:09.387Z,11.20
2019-06-13T00:43:09.188Z,11.20
2019-06-13T00:44:09.458Z,11.20
2019-06-13T00:45:09.211Z,11.21
2019-06-13T00:46:08.913Z,11.21
2019-06-13T00:47:09.658Z,11.22
2019-06-13T00:48:09.778Z,11.18
2019-06-13T00:49:09.606Z,11.14
2019-06-13T00:50:08.948Z,11.10
2019-06-13T00:51:09.519Z,11.11
2019-06-13T00:52:08.842Z,11.14
2019-06-13T00:53:09.605Z,11.14
2019-06-13T00:54:09.460Z,11.14
2019-06-13T00:55:09.031Z,11.16
2019-06-13T00:56:09.659Z,11.14
2019-06-13T00:57:09.331Z,11.16
2019-06-13T00:58:08.899Z,11.18
2019-06-13T00:59:08.694Z,11.18
2019-06-13T01:00:11.082Z,11.22
2019-06-13T01:01:10.245Z,11.21
2019-06-13T01:02:09.670Z,11.27
2019-06-13T01:03:09.667Z,11.32
2019-06-13T01:04:09.359Z,11.29
2019-06-13T01:05:10.260Z,11.31
2019-06-13T01:06:21.088Z,11.31
2019-06-13T01:07:08.617Z,11.31
2019-06-13T01:08:09.681Z,11.33
2019-06-13T01:09:09.562Z,11.36
2019-06-13T01:10:09.383Z,11.38
2019-06-13T01:11:09.992Z,11.39
2019-06-13T01:12:08.916Z,11.40
2019-06-13T01:13:09.723Z,11.38
2019-06-13T01:14:09.152Z,11.36
2019-06-13T01:15:09.480Z,11.32
2019-06-13T01:16:10.036Z,11.33
2019-06-13T01:17:09.205Z,11.36
2019-06-13T01:18:09.715Z,11.35
2019-06-13T01:19:08.741Z,11.32
2019-06-13T01:20:10.687Z,11.31
2019-06-13T01:21:09.558Z,11.28
2019-06-13T01:22:09.628Z,11.28
2019-06-13T01:23:09.895Z,11.28
2019-06-13T01:24:08.976Z,11.28
2019-06-13T01:25:09.801Z,11.31
2019-06-13T01:26:08.989Z,11.31
2019-06-13T01:27:09.836Z,11.35
2019-06-13T01:28:08.978Z,11.33
2019-06-13T01:29:09.577Z,11.33
2019-06-13T01:30:09.081Z,11.32
2019-06-13T01:31:09.615Z,11.35
2019-06-13T01:32:08.649Z,11.36
2019-06-13T01:33:09.264Z,11.33
2019-06-13T01:34:09.278Z,11.31
2019-06-13T01:35:09.523Z,11.29
2019-06-13T01:36:09.514Z,11.29
2019-06-13T01:37:09.600Z,11.28
2019-06-13T01:38:09.136Z,11.29
2019-06-13T01:39:09.323Z,11.28
2019-06-13T01:40:09.435Z,11.33
2019-06-13T01:41:09.728Z,11.32
2019-06-13T01:42:10.023Z,11.35
2019-06-13T01:43:09.403Z,11.33
2019-06-13T01:44:08.759Z,11.35
2019-06-13T01:45:09.777Z,11.36
2019-06-13T01:46:09.783Z,11.35
2019-06-13T01:47:08.999Z,11.35
2019-06-13T01:48:18.947Z,11.36
2019-06-13T01:49:09.035Z,11.40
2019-06-13T01:50:09.288Z,11.40
2019-06-13T01:51:09.117Z,11.39
2019-06-13T01:52:09.543Z,11.38
2019-06-13T01:53:08.998Z,11.33
2019-06-13T01:54:09.065Z,11.32
2019-06-13T01:55:09.481Z,11.31
2019-06-13T01:56:09.450Z,11.31
2019-06-13T01:57:09.032Z,11.31
2019-06-13T01:58:09.110Z,11.31
2019-06-13T01:59:08.882Z,11.32
2019-06-13T02:00:22.365Z,11.32
2019-06-13T02:01:09.585Z,11.32
2019-06-13T02:02:09.307Z,11.32
2019-06-13T02:03:09.910Z,11.31
2019-06-13T02:04:08.820Z,11.29
2019-06-13T02:05:09.273Z,11.29
2019-06-13T02:06:08.777Z,11.29
2019-06-13T02:07:09.786Z,11.29
2019-06-13T02:08:09.442Z,11.29
2019-06-13T02:09:09.913Z,11.28
2019-06-13T02:10:09.429Z,11.28
2019-06-13T02:11:08.978Z,11.27
2019-06-13T02:12:10.007Z,11.27
2019-06-13T02:13:08.891Z,11.24
2019-06-13T02:14:09.711Z,11.24
2019-06-13T02:15:09.213Z,11.21
2019-06-13T02:16:09.267Z,11.21
2019-06-13T02:17:10.309Z,11.21
2019-06-13T02:18:09.328Z,11.22
2019-06-13T02:19:09.148Z,11.24
2019-06-13T02:20:09.141Z,11.21
2019-06-13T02:21:09.362Z,11.21
2019-06-13T02:22:10.151Z,11.21
2019-06-13T02:23:09.217Z,11.21
2019-06-13T02:24:08.841Z,11.17
2019-06-13T02:25:09.604Z,11.14
2019-06-13T02:26:09.202Z,11.14
2019-06-13T02:27:08.979Z,11.17
2019-06-13T02:28:09.102Z,11.20
2019-06-13T02:29:08.732Z,11.22
2019-06-13T02:30:11.372Z,11.24
2019-06-13T02:31:10.732Z,11.27
2019-06-13T02:32:15.642Z,11.29
2019-06-13T02:33:11.597Z,11.28
2019-06-13T02:34:11.367Z,11.22
2019-06-13T02:35:11.396Z,11.21
2019-06-13T02:36:10.439Z,11.18
2019-06-13T02:37:26.750Z,11.14
2019-06-13T02:38:10.669Z,11.11
2019-06-13T02:39:11.195Z,11.11
2019-06-13T02:40:10.890Z,11.09
2019-06-13T02:41:10.625Z,11.07
2019-06-13T02:42:09.995Z,11.09
2019-06-13T02:43:11.312Z,11.10
2019-06-13T02:44:08.908Z,11.09
2019-06-13T02:45:10.520Z,11.06
2019-06-13T02:46:11.199Z,11.05
2019-06-13T02:47:09.670Z,11.03
2019-06-13T02:48:10.782Z,11.02
2019-06-13T02:49:10.416Z,11.00
2019-06-13T02:50:10.245Z,11.00
2019-06-13T02:51:10.940Z,10.97
2019-06-13T02:52:11.213Z,10.95
2019-06-13T02:53:09.993Z,10.97
2019-06-13T02:54:10.569Z,10.95
2019-06-13T02:55:11.231Z,10.94
2019-06-13T02:56:15.601Z,11.00
2019-06-13T02:57:09.044Z,11.03
2019-06-13T02:58:09.297Z,11.03
2019-06-13T02:59:09.889Z,11.02
2019-06-13T03:00:11.873Z,10.98
2019-06-13T03:01:09.635Z,10.95
2019-06-13T03:02:09.933Z,10.94
2019-06-13T03:03:09.196Z,10.91
2019-06-13T03:04:09.590Z,10.88
2019-06-13T03:05:10.160Z,10.87
2019-06-13T03:06:09.349Z,10.84
2019-06-13T03:07:10.120Z,10.84
2019-06-13T03:08:09.112Z,10.83
2019-06-13T03:09:10.421Z,10.81
2019-06-13T03:10:10.387Z,10.77
2019-06-13T03:11:09.976Z,10.72
2019-06-13T03:12:09.586Z,10.72
2019-06-13T03:13:09.378Z,10.75
2019-06-13T03:14:09.210Z,10.75
2019-06-13T03:15:09.825Z,10.72
2019-06-13T03:16:09.470Z,10.69
2019-06-13T03:17:09.764Z,10.69
2019-06-13T03:18:09.183Z,10.68
2019-06-13T03:19:09.224Z,10.67
2019-06-13T03:20:10.406Z,10.65
2019-06-13T03:21:09.416Z,10.67
2019-06-13T03:22:09.988Z,10.67
2019-06-13T03:23:10.071Z,10.68
2019-06-13T03:24:09.826Z,10.68
2019-06-13T03:25:09.117Z,10.72
2019-06-13T03:26:10.292Z,10.74
2019-06-13T03:27:09.876Z,10.77
2019-06-13T03:28:10.157Z,10.87
2019-06-13T03:29:10.186Z,10.94
2019-06-13T03:30:20.400Z,11.00
2019-06-13T03:31:11.858Z,11.14
2019-06-13T03:32:11.830Z,11.24
2019-06-13T03:33:11.563Z,11.33
2019-06-13T03:34:12.574Z,11.39
2019-06-13T03:35:09.083Z,11.49
2019-06-13T03:36:09.546Z,11.56
2019-06-13T03:37:10.086Z,11.61
2019-06-13T03:38:09.189Z,11.62
2019-06-13T03:39:10.205Z,11.67
2019-06-13T03:40:18.974Z,11.71
2019-06-13T03:41:09.552Z,11.72
2019-06-13T03:42:09.776Z,11.73
2019-06-13T03:43:09.158Z,11.72
2019-06-13T03:44:09.948Z,11.73
2019-06-13T03:45:09.577Z,11.75
2019-06-13T03:46:10.054Z,11.75
2019-06-13T03:47:09.501Z,11.78
2019-06-13T03:48:09.807Z,11.79
2019-06-13T03:49:09.517Z,11.80
2019-06-13T03:50:09.774Z,11.80
2019-06-13T03:51:10.606Z,11.84
2019-06-13T03:52:09.234Z,11.86
2019-06-13T03:53:09.079Z,11.89
2019-06-13T03:54:09.828Z,11.94
2019-06-13T03:55:09.305Z,11.94
2019-06-13T03:56:09.601Z,11.97
2019-06-13T03:57:09.826Z,11.99
2019-06-13T03:58:11.743Z,12.01
2019-06-13T03:59:09.247Z,12.01
2019-06-13T04:00:12.171Z,12.03
2019-06-13T04:01:15.867Z,12.03
2019-06-13T04:02:09.214Z,12.06
2019-06-13T04:03:10.282Z,12.10
2019-06-13T04:04:09.350Z,12.12
2019-06-13T04:05:09.797Z,12.12
2019-06-13T04:06:09.920Z,12.13
2019-06-13T04:07:09.086Z,12.13
2019-06-13T04:08:17.970Z,12.14
2019-06-13T04:09:09.737Z,12.16
2019-06-13T04:10:09.249Z,12.18
2019-06-13T04:11:09.191Z,12.21
2019-06-13T04:12:09.502Z,12.24
2019-06-13T04:13:09.355Z,12.25
2019-06-13T04:14:10.188Z,12.29
2019-06-13T04:15:09.878Z,12.32
2019-06-13T04:16:10.184Z,12.32
2019-06-13T04:17:09.351Z,12.33
2019-06-13T04:18:09.639Z,12.33
2019-06-13T04:19:09.720Z,12.33
2019-06-13T04:20:09.459Z,12.35
2019-06-13T04:21:09.397Z,12.33
2019-06-13T04:22:10.124Z,12.35
2019-06-13T04:23:09.698Z,12.36
2019-06-13T04:24:09.145Z,12.36
2019-06-13T04:25:10.101Z,12.37
2019-06-13T04:26:09.818Z,12.39
2019-06-13T04:27:08.975Z,12.40
2019-06-13T04:28:09.212Z,12.40
2019-06-13T04:29:10.157Z,12.40
2019-06-13T04:30:32.841Z,12.39
2019-06-13T04:31:09.505Z,12.40
2019-06-13T04:32:09.619Z,12.40
2019-06-13T04:33:10.183Z,12.42
2019-06-13T04:34:09.609Z,12.40
2019-06-13T04:35:10.079Z,12.40
2019-06-13T04:36:10.018Z,12.39
2019-06-13T04:37:09.678Z,12.36
2019-06-13T04:38:10.197Z,12.33
2019-06-13T04:39:10.484Z,12.31
2019-06-13T04:40:09.795Z,12.26
2019-06-13T04:41:10.143Z,12.26
2019-06-13T04:42:09.761Z,12.24
2019-06-13T04:43:10.308Z,12.20
2019-06-13T04:44:09.624Z,12.20
2019-06-13T04:45:10.421Z,12.18
2019-06-13T04:46:09.789Z,12.18
2019-06-13T04:47:10.104Z,12.16
2019-06-13T04:48:09.701Z,12.16
2019-06-13T04:49:10.115Z,12.14
2019-06-13T04:50:10.453Z,12.12
2019-06-13T04:51:09.557Z,12.10
2019-06-13T04:52:09.599Z,12.12
2019-06-13T04:53:10.118Z,12.12
2019-06-13T04:54:09.912Z,12.10
2019-06-13T04:55:09.314Z,12.09
2019-06-13T04:56:10.188Z,12.06
2019-06-13T04:57:09.313Z,12.03
2019-06-13T04:58:10.063Z,12.03
2019-06-13T04:59:09.425Z,12.03
2019-06-13T05:00:11.323Z,12.03
2019-06-13T05:01:09.362Z,12.03
2019-06-13T05:02:10.441Z,12.05
2019-06-13T05:03:09.710Z,12.08
2019-06-13T05:04:10.177Z,12.10
2019-06-13T05:05:11.315Z,12.12
2019-06-13T05:06:09.919Z,12.16
2019-06-13T05:07:10.520Z,12.14
2019-06-13T05:08:10.018Z,12.18
2019-06-13T05:09:09.201Z,12.18
2019-06-13T05:10:10.322Z,12.21
2019-06-13T05:11:09.284Z,12.22
2019-06-13T05:12:09.319Z,12.25
2019-06-13T05:13:10.597Z,12.28
2019-06-13T05:14:11.614Z,12.32
2019-06-13T05:15:09.720Z,12.37
2019-06-13T05:16:10.241Z,12.43
2019-06-13T05:17:09.745Z,12.51
2019-06-13T05:18:09.704Z,12.60
2019-06-13T05:19:10.960Z,12.69
2019-06-13T05:20:09.875Z,12.75
2019-06-13T05:21:10.992Z,12.82
2019-06-13T05:22:09.269Z,12.89
2019-06-13T05:23:09.810Z,12.94
2019-06-13T05:24:09.616Z,12.96
2019-06-13T05:25:09.990Z,13.02
2019-06-13T05:26:09.212Z,13.05
2019-06-13T05:27:09.717Z,13.10
2019-06-13T05:28:09.824Z,13.17
2019-06-13T05:29:09.518Z,13.24
2019-06-13T05:30:14.354Z,13.31
2019-06-13T05:31:09.485Z,13.35
2019-06-13T05:32:09.896Z,13.40
2019-06-13T05:33:09.699Z,13.46
2019-06-13T05:34:09.961Z,13.51
2019-06-13T05:35:09.892Z,13.59
2019-06-13T05:36:10.456Z,13.68
2019-06-13T05:37:09.763Z,13.72
2019-06-13T05:39:15.473Z,13.84
2019-06-13T05:40:10.196Z,13.93
2019-06-13T05:41:10.369Z,14.00
2019-06-13T05:42:10.223Z,14.03
2019-06-13T05:43:11.158Z,14.06
2019-06-13T05:44:09.357Z,14.07
2019-06-13T05:45:10.388Z,14.14
2019-06-13T05:46:10.187Z,14.31
2019-06-13T05:47:09.346Z,14.49
2019-06-13T05:48:11.041Z,14.68
2019-06-13T05:49:09.500Z,14.94
2019-06-13T05:50:09.643Z,15.14
2019-06-13T05:51:09.893Z,15.26
2019-06-13T05:52:10.312Z,15.36
2019-06-13T05:53:09.731Z,15.47
2019-06-13T05:54:09.446Z,15.57
2019-06-13T05:55:10.124Z,15.66
2019-06-13T05:56:09.366Z,15.86
2019-06-13T05:57:09.751Z,16.06
2019-06-13T05:58:10.700Z,16.03
2019-06-13T05:59:09.966Z,16.14
2019-06-13T06:00:09.649Z,16.27
2019-06-13T06:01:09.951Z,16.41
2019-06-13T06:02:10.281Z,16.47
2019-06-13T06:03:09.422Z,16.36
2019-06-13T06:04:09.945Z,16.47
2019-06-13T06:05:10.437Z,16.55
2019-06-13T06:06:09.333Z,16.69
2019-06-13T06:07:10.076Z,16.77
2019-06-13T06:08:09.735Z,16.72
2019-06-13T06:09:29.606Z,16.65
2019-06-13T06:10:09.891Z,16.61
2019-06-13T06:11:10.087Z,16.66
2019-06-13T06:12:09.833Z,16.77
2019-06-13T06:13:09.914Z,16.76
2019-06-13T06:14:10.083Z,16.69
2019-06-13T06:15:09.698Z,16.85
2019-06-13T06:16:09.666Z,16.88
2019-06-13T06:17:10.263Z,16.91
2019-06-13T06:18:11.304Z,16.97
2019-06-13T06:19:09.946Z,16.83
2019-06-13T06:20:09.968Z,16.85
2019-06-13T06:21:11.324Z,16.84
2019-06-13T06:22:09.414Z,16.98
2019-06-13T06:23:16.619Z,17.14
2019-06-13T06:24:14.568Z,17.32
2019-06-13T06:25:12.406Z,17.39
2019-06-13T06:26:09.915Z,17.40
2019-06-13T06:27:09.939Z,17.16
2019-06-13T06:28:09.679Z,17.05
2019-06-13T06:29:09.596Z,16.91
2019-06-13T06:30:10.609Z,16.80
2019-06-13T06:31:09.947Z,16.70
2019-06-13T06:32:08.956Z,16.51
2019-06-13T06:33:10.781Z,16.47
2019-06-13T06:34:10.081Z,16.59
2019-06-13T06:36:09.539Z,16.65
2019-06-13T06:37:09.631Z,16.73
2019-06-13T06:38:10.006Z,16.90
2019-06-13T06:39:09.672Z,17.05
2019-06-13T06:40:09.507Z,17.12
2019-06-13T06:41:09.740Z,17.31
2019-06-13T06:42:09.766Z,17.55
2019-06-13T06:43:09.723Z,17.57
2019-06-13T06:44:09.406Z,17.72
2019-06-13T06:45:10.129Z,17.85
2019-06-13T06:46:09.654Z,18.10
2019-06-13T06:47:09.284Z,18.17
2019-06-13T06:48:09.885Z,18.29
2019-06-13T06:49:10.777Z,18.40
2019-06-13T06:50:10.421Z,18.43
2019-06-13T06:51:09.771Z,18.57
2019-06-13T06:52:10.502Z,18.69
2019-06-13T06:53:10.088Z,18.59
2019-06-13T06:54:10.744Z,18.51
2019-06-13T06:55:09.965Z,18.47
2019-06-13T06:56:10.378Z,18.57
2019-06-13T06:57:09.684Z,18.66
2019-06-13T06:58:10.437Z,18.72
2019-06-13T06:59:10.280Z,18.66
2019-06-13T07:00:10.548Z,18.77
2019-06-13T07:01:10.473Z,18.88
2019-06-13T07:02:10.270Z,18.99
2019-06-13T07:03:11.014Z,19.06
2019-06-13T07:04:10.141Z,19.03
2019-06-13T07:05:09.827Z,19.19
2019-06-13T07:06:10.450Z,19.25
2019-06-13T07:07:09.583Z,19.31
2019-06-13T07:08:10.368Z,19.47
2019-06-13T07:09:10.036Z,19.68
2019-06-13T07:10:17.100Z,19.60
2019-06-13T07:11:09.896Z,19.64
2019-06-13T07:12:09.425Z,19.73
2019-06-13T07:13:10.058Z,19.83
2019-06-13T07:14:20.816Z,19.83
2019-06-13T07:15:10.608Z,19.96
2019-06-13T07:16:10.185Z,20.14
2019-06-13T07:17:09.634Z,20.17
2019-06-13T07:18:09.581Z,19.94
2019-06-13T07:19:09.122Z,19.88
2019-06-13T07:20:10.518Z,19.98
2019-06-13T07:21:09.976Z,20.28
2019-06-13T07:22:10.086Z,20.45
2019-06-13T07:23:10.173Z,20.58
2019-06-13T07:24:09.579Z,20.64
2019-06-13T07:25:09.905Z,20.52
2019-06-13T07:26:10.016Z,20.64
2019-06-13T07:27:11.365Z,20.68
2019-06-13T07:28:10.584Z,20.61
2019-06-13T07:29:09.698Z,20.72
2019-06-13T07:30:11.941Z,20.75
2019-06-13T07:31:09.451Z,20.86
2019-06-13T07:32:10.634Z,20.93
2019-06-13T07:33:09.767Z,21.06
2019-06-13T07:34:11.193Z,21.20
2019-06-13T07:35:10.151Z,21.14
2019-06-13T07:36:10.723Z,21.32
2019-06-13T07:37:09.830Z,21.51
2019-06-13T07:38:09.313Z,21.46
2019-06-13T07:39:10.089Z,21.31
2019-06-13T07:40:11.106Z,21.34
2019-06-13T07:41:09.855Z,21.27
2019-06-13T07:42:09.653Z,21.22
2019-06-13T07:43:09.763Z,21.06
2019-06-13T07:44:09.455Z,21.05
2019-06-13T07:45:09.905Z,21.06
2019-06-13T07:46:09.796Z,21.14
2019-06-13T07:47:10.226Z,21.24
2019-06-13T07:48:12.311Z,21.40
2019-06-13T07:49:09.579Z,21.56
2019-06-13T07:50:10.237Z,21.42
2019-06-13T07:51:09.957Z,21.57
2019-06-13T07:52:09.850Z,21.60
2019-06-13T07:53:09.550Z,21.62
2019-06-13T07:54:09.959Z,21.78
2019-06-13T07:55:10.837Z,21.91
2019-06-13T07:56:09.494Z,22.00
2019-06-13T07:57:09.501Z,21.93
2019-06-13T07:58:09.664Z,21.89
2019-06-13T07:59:09.816Z,21.98
2019-06-13T08:00:09.671Z,21.75
2019-06-13T08:01:11.728Z,21.79
2019-06-13T08:02:10.410Z,22.02
2019-06-13T08:03:10.199Z,22.02
2019-06-13T08:04:10.876Z,21.98
2019-06-13T08:05:10.072Z,21.82
2019-06-13T08:06:10.093Z,21.97
2019-06-13T08:07:09.696Z,22.20
2019-06-13T08:08:10.197Z,21.86
2019-06-13T08:09:09.859Z,21.80
2019-06-13T08:10:12.052Z,21.82
2019-06-13T08:11:09.577Z,21.75
2019-06-13T08:12:10.418Z,21.75
2019-06-13T08:13:10.377Z,21.75
2019-06-13T08:14:10.279Z,21.76
2019-06-13T08:15:10.121Z,21.83
2019-06-13T08:16:23.188Z,21.90
2019-06-13T08:17:10.807Z,21.91
2019-06-13T08:18:09.820Z,21.96
2019-06-13T08:19:09.657Z,22.16
2019-06-13T08:20:09.854Z,22.12
2019-06-13T08:21:10.239Z,22.01
2019-06-13T08:22:09.513Z,21.87
2019-06-13T08:23:14.796Z,21.93
2019-06-13T08:24:09.723Z,21.94
2019-06-13T08:25:09.604Z,22.01
2019-06-13T08:26:13.305Z,22.01
2019-06-13T08:27:08.981Z,21.94
2019-06-13T08:28:10.223Z,22.08
2019-06-13T08:29:09.874Z,21.94
2019-06-13T08:30:09.879Z,21.94
2019-06-13T08:31:09.949Z,22.08
2019-06-13T08:32:09.765Z,22.13
2019-06-13T08:33:09.817Z,22.19
2019-06-13T08:34:10.009Z,22.23
2019-06-13T08:35:09.786Z,22.21
2019-06-13T08:36:10.064Z,22.10
2019-06-13T08:37:12.136Z,22.17
2019-06-13T08:38:09.890Z,22.21
2019-06-13T08:39:09.704Z,22.38
2019-06-13T08:40:10.330Z,22.45
2019-06-13T08:41:19.238Z,22.49
2019-06-13T08:42:09.113Z,22.31
2019-06-13T08:43:15.224Z,22.27
2019-06-13T08:44:11.140Z,22.09
2019-06-13T08:45:09.394Z,21.97
2019-06-13T08:46:10.412Z,21.89
2019-06-13T08:47:10.892Z,21.64
2019-06-13T08:48:11.040Z,21.58
2019-06-13T08:49:15.585Z,21.71
2019-06-13T08:50:09.821Z,21.69
2019-06-13T08:51:10.368Z,21.68
2019-06-13T08:52:09.235Z,21.69
2019-06-13T08:53:10.513Z,21.54
2019-06-13T08:54:09.918Z,21.51
2019-06-13T08:55:10.657Z,21.43
2019-06-13T08:56:09.413Z,21.50
2019-06-13T08:57:10.291Z,21.69
2019-06-13T08:58:10.049Z,22.04
2019-06-13T08:59:10.424Z,22.08
2019-06-13T09:00:09.560Z,22.24
2019-06-13T09:01:10.576Z,22.30
2019-06-13T09:02:11.017Z,22.64
2019-06-13T09:03:10.255Z,23.11
2019-06-13T09:04:10.714Z,23.34
2019-06-13T09:05:11.303Z,23.23
2019-06-13T09:06:12.273Z,23.30
2019-06-13T09:07:09.368Z,23.41
2019-06-13T09:08:15.832Z,23.39
2019-06-13T09:09:09.492Z,23.23
2019-06-13T09:10:09.980Z,23.05
2019-06-13T09:11:09.166Z,22.97
2019-06-13T09:12:10.286Z,22.83
2019-06-13T09:13:09.406Z,22.77
2019-06-13T09:14:11.513Z,22.77
2019-06-13T09:15:09.446Z,23.04
2019-06-13T09:16:10.216Z,23.37
2019-06-13T09:17:12.540Z,23.35
2019-06-13T09:18:09.543Z,23.16
2019-06-13T09:19:10.273Z,22.79
2019-06-13T09:20:10.375Z,22.56
2019-06-13T09:21:11.131Z,22.65
2019-06-13T09:22:10.209Z,22.97
2019-06-13T09:23:11.309Z,23.12
2019-06-13T09:24:10.079Z,23.04
2019-06-13T09:25:11.878Z,22.79
2019-06-13T09:26:10.378Z,22.70
2019-06-13T09:27:09.502Z,22.42
2019-06-13T09:28:09.805Z,22.10
2019-06-13T09:29:10.292Z,21.89
2019-06-13T09:30:09.663Z,21.97
2019-06-13T09:31:10.767Z,22.08
2019-06-13T09:32:10.430Z,22.25
2019-06-13T09:33:18.717Z,22.28
2019-06-13T09:34:14.214Z,22.34
2019-06-13T09:35:10.130Z,22.21
2019-06-13T09:36:10.989Z,22.04
2019-06-13T09:37:09.864Z,21.84
2019-06-13T09:38:10.145Z,21.82
2019-06-13T09:39:19.950Z,21.98
2019-06-13T09:40:10.763Z,22.24
2019-06-13T09:41:11.356Z,22.49
2019-06-13T09:42:18.691Z,22.75
2019-06-13T09:43:10.462Z,22.88
2019-06-13T09:44:11.312Z,23.13
2019-06-13T09:46:10.306Z,23.61
2019-06-13T09:47:10.846Z,23.76
2019-06-13T09:48:11.472Z,23.98
2019-06-13T09:49:10.710Z,24.16
2019-06-13T09:50:11.265Z,24.27
2019-06-13T09:51:09.803Z,24.31
2019-06-13T09:52:10.268Z,24.00
2019-06-13T09:53:10.902Z,23.79
2019-06-13T09:54:10.579Z,23.79
2019-06-13T09:55:12.499Z,23.83
2019-06-13T09:56:10.553Z,23.93
2019-06-13T09:57:11.098Z,24.00
2019-06-13T09:58:09.532Z,23.97
2019-06-13T09:59:10.594Z,23.83
2019-06-13T10:00:17.324Z,23.47
2019-06-13T10:01:08.972Z,22.95
2019-06-13T10:02:09.045Z,22.52
2019-06-13T10:03:09.750Z,22.28
2019-06-13T10:04:08.975Z,22.16
2019-06-13T10:05:11.049Z,22.08
2019-06-13T10:06:18.731Z,21.98
2019-06-13T10:07:09.749Z,22.16
2019-06-13T10:08:09.735Z,22.30
2019-06-13T10:09:10.843Z,22.49
2019-06-13T10:10:10.687Z,22.60
2019-06-13T10:11:09.048Z,22.90
2019-06-13T10:12:30.690Z,23.15
2019-06-13T10:13:10.083Z,23.20
2019-06-13T10:14:10.405Z,23.15
2019-06-13T10:15:10.873Z,23.44
2019-06-13T10:16:10.887Z,23.51
2019-06-13T10:17:11.244Z,23.79
2019-06-13T10:18:11.330Z,23.87
2019-06-13T10:18:14.380Z,23.31
2019-06-13T10:19:10.299Z,23.74
2019-06-13T10:20:22.880Z,23.60
2019-06-13T10:21:09.674Z,23.33
2019-06-13T10:22:16.910Z,23.01
2019-06-13T10:23:09.974Z,22.68
2019-06-13T10:24:29.347Z,22.76
2019-06-13T10:25:12.950Z,22.97
2019-06-13T10:26:19.195Z,23.22
2019-06-13T10:27:09.007Z,23.41
2019-06-13T10:28:10.676Z,23.34
2019-06-13T10:29:09.062Z,23.16
2019-06-13T10:30:11.244Z,22.98
2019-06-13T10:31:09.063Z,22.64
2019-06-13T10:32:09.066Z,22.50
2019-06-13T10:33:09.673Z,22.75
2019-06-13T10:34:09.008Z,22.86
2019-06-13T10:35:09.067Z,23.04
2019-06-13T10:36:09.823Z,23.22
2019-06-13T10:37:09.013Z,23.42
2019-06-13T10:38:11.512Z,23.58
2019-06-13T10:39:10.431Z,23.80
2019-06-13T10:40:10.684Z,23.89
2019-06-13T10:41:09.975Z,24.02
2019-06-13T10:42:09.929Z,24.26
2019-06-13T10:43:19.510Z,24.23
2019-06-13T10:44:09.693Z,23.97
2019-06-13T10:45:10.123Z,23.79
2019-06-13T10:46:09.773Z,23.76
2019-06-13T10:47:09.175Z,23.93
2019-06-13T10:48:09.411Z,23.98
2019-06-13T10:49:10.281Z,23.74
2019-06-13T10:50:09.895Z,23.37
2019-06-13T10:51:10.757Z,23.49
2019-06-13T10:52:09.983Z,23.68
2019-06-13T10:53:13.233Z,24.02
2019-06-13T10:54:09.076Z,24.33
2019-06-13T10:55:09.565Z,24.37
2019-06-13T10:56:09.086Z,24.30
2019-06-13T10:57:13.822Z,24.22
2019-06-13T10:58:09.971Z,24.00
2019-06-13T11:00:09.665Z,23.98
2019-06-13T11:01:11.198Z,24.01
2019-06-13T11:02:09.659Z,23.87
2019-06-13T11:03:09.087Z,23.93
2019-06-13T11:04:10.798Z,24.02
2019-06-13T11:05:10.605Z,24.08
2019-06-13T11:06:11.234Z,24.18
2019-06-13T11:07:09.623Z,24.11
2019-06-13T11:08:15.257Z,23.94
2019-06-13T11:09:09.644Z,23.75
2019-06-13T11:10:11.887Z,23.47
2019-06-13T11:11:09.340Z,23.39
2019-06-13T11:12:09.092Z,23.45
2019-06-13T11:13:17.074Z,23.57
2019-06-13T11:14:10.311Z,23.71
2019-06-13T11:15:10.336Z,23.85
2019-06-13T11:16:10.248Z,23.90
2019-06-13T11:17:28.929Z,23.97
2019-06-13T11:18:09.080Z,24.18
2019-06-13T11:19:10.004Z,24.26
2019-06-13T11:20:09.517Z,24.19
2019-06-13T11:21:09.613Z,24.02
2019-06-13T11:22:10.546Z,24.00
2019-06-13T11:23:09.826Z,24.15
2019-06-13T11:24:10.062Z,24.09
2019-06-13T11:25:09.914Z,23.96
2019-06-13T11:26:08.977Z,23.76
2019-06-13T11:27:09.094Z,23.53
2019-06-13T11:28:09.824Z,23.33
2019-06-13T11:29:09.859Z,23.47
2019-06-13T11:30:14.279Z,23.61
2019-06-13T11:31:09.647Z,23.54
2019-06-13T11:32:09.116Z,23.53
2019-06-13T11:33:09.431Z,23.58
2019-06-13T11:34:09.433Z,23.63
2019-06-13T11:35:10.333Z,23.38
2019-06-13T11:36:09.350Z,23.12
2019-06-13T11:37:10.532Z,22.86
2019-06-13T11:38:11.148Z,22.98
2019-06-13T11:39:09.766Z,23.09
2019-06-13T11:40:22.561Z,23.01
2019-06-13T11:41:09.558Z,23.04
2019-06-13T11:42:14.295Z,23.08
2019-06-13T11:43:09.500Z,22.91
2019-06-13T11:44:11.558Z,22.87
2019-06-13T11:45:11.016Z,22.94
2019-06-13T11:46:09.944Z,23.01
2019-06-13T11:47:10.183Z,23.00
2019-06-13T11:48:10.551Z,22.95
2019-06-13T11:49:13.521Z,22.94
2019-06-13T11:50:09.775Z,23.16
2019-06-13T11:51:09.132Z,23.45
2019-06-13T11:52:09.130Z,23.80
2019-06-13T11:53:11.731Z,23.96
2019-06-13T11:54:09.850Z,23.82
2019-06-13T11:55:12.650Z,23.57
2019-06-13T11:56:10.099Z,23.53
2019-06-13T11:57:10.410Z,23.65
2019-06-13T11:58:09.482Z,24.11
2019-06-13T11:59:10.201Z,24.33
2019-06-13T12:00:22.245Z,24.30
2019-06-13T12:01:09.634Z,24.31
2019-06-13T12:02:10.233Z,24.30
2019-06-13T12:03:10.459Z,24.30
2019-06-13T12:04:10.328Z,24.11
2019-06-13T12:05:10.216Z,23.82
2019-06-13T12:06:10.056Z,23.50
2019-06-13T12:07:10.082Z,23.47
2019-06-13T12:08:15.232Z,23.41
2019-06-13T12:09:10.163Z,23.35
2019-06-13T12:10:09.963Z,23.28
2019-06-13T12:11:10.393Z,23.27
2019-06-13T12:12:09.972Z,23.23
2019-06-13T12:13:09.070Z,23.63
2019-06-13T12:14:12.316Z,23.87
2019-06-13T12:15:10.790Z,23.93
2019-06-13T12:16:09.547Z,23.75
2019-06-13T12:17:10.669Z,23.60
2019-06-13T12:18:09.561Z,23.50
2019-06-13T12:19:09.928Z,23.51
2019-06-13T12:20:10.084Z,23.65
2019-06-13T12:21:10.665Z,23.96
2019-06-13T12:22:10.318Z,24.22
2019-06-13T12:23:10.251Z,24.57
2019-06-13T12:24:09.876Z,24.75
2019-06-13T12:25:09.147Z,24.91
2019-06-13T12:26:09.152Z,25.11
2019-06-13T12:27:10.809Z,25.45
2019-06-13T12:28:09.162Z,25.64
2019-06-13T12:29:11.191Z,25.88
2019-06-13T12:30:09.470Z,25.74
2019-06-13T12:31:09.683Z,25.97
2019-06-13T12:32:09.101Z,26.13
2019-06-13T12:33:09.085Z,26.13
2019-06-13T12:34:10.333Z,25.82
2019-06-13T12:35:09.102Z,25.68
2019-06-13T12:36:10.713Z,25.48
2019-06-13T12:37:09.467Z,25.53
2019-06-13T12:38:09.394Z,25.56
2019-06-13T12:39:10.481Z,25.52
2019-06-13T12:40:09.568Z,25.37
2019-06-13T12:41:09.629Z,25.11
2019-06-13T12:42:09.724Z,25.06
2019-06-13T12:43:09.340Z,25.23
2019-06-13T12:44:21.714Z,25.55
2019-06-13T12:45:11.159Z,25.66
2019-06-13T12:46:09.794Z,25.55
2019-06-13T12:47:09.726Z,25.51
2019-06-13T12:48:09.380Z,25.27
2019-06-13T12:49:10.106Z,24.97
2019-06-13T12:50:10.791Z,25.06
2019-06-13T12:51:09.176Z,25.38
2019-06-13T12:52:10.264Z,25.70
2019-06-13T12:53:09.543Z,26.07
2019-06-13T12:54:09.112Z,26.34
2019-06-13T12:55:09.109Z,26.51